Time;durP1;ratioP1;P1;durP2;ratioP2;P2;SDS_P1;SDS_P2;PMS_P1;PMS_P2;Temp;Humidity;BMP_temperature;BMP_pressure;BME280_temperature;BME280_humidity;BME280_pressure;Samples;Min_cycle;Max_cycle;Signal;HPM_P1;HPM_P2
2022/03/05 00:01:12;;;;;;;10.55;6.80;;;;;;;;;;5096937;28;20172;-61
2022/03/05 00:03:38;;;;;;;9.18;6.78;;;;;;;;;;5103924;28;20176;-61
2022/03/05 00:06:03;;;;;;;6.82;6.10;;;;;;;;;;5096505;28;20207;-61
2022/03/05 00:08:28;;;;;;;7.15;6.25;;;;;;;;;;5098838;28;20180;-61
2022/03/05 00:10:53;;;;;;;7.78;6.85;;;;;;;;;;5100498;28;20252;-61
2022/03/05 00:13:19;;;;;;;9.98;7.45;;;;;;;;;;5100560;28;20263;-61
2022/03/05 00:15:45;;;;;;;7.30;6.53;;;;;;;;;;5098768;28;20172;-61
2022/03/05 00:18:11;;;;;;;6.55;5.95;;;;;;;;;;5102891;28;20267;-61
2022/03/05 00:20:36;;;;;;;7.97;6.70;;;;;;;;;;5090393;28;20263;-61
2022/03/05 00:23:01;;;;;;;8.15;6.57;;;;;;;;;;5096855;28;20255;-61
2022/03/05 00:25:26;;;;;;;11.93;7.68;;;;;;;;;;5089981;28;20172;-61
2022/03/05 00:27:53;;;;;;;12.15;8.20;;;;;;;;;;5096495;28;20254;-61
2022/03/05 00:30:18;;;;;;;11.38;8.77;;;;;;;;;;5097294;28;20256;-61
2022/03/05 00:32:45;;;;;;;15.55;11.93;;;;;;;;;;5102450;28;20175;-61
2022/03/05 00:35:11;;;;;;;18.92;11.55;;;;;;;;;;5091953;28;20207;-61
2022/03/05 00:37:37;;;;;;;17.65;11.38;;;;;;;;;;5102351;28;20215;-61
2022/03/05 00:40:03;;;;;;;17.45;10.98;;;;;;;;;;5099585;28;20180;-61
2022/03/05 00:42:29;;;;;;;14.95;9.20;;;;;;;;;;5097675;28;20587;-61
2022/03/05 00:44:54;;;;;;;9.43;8.25;;;;;;;;;;5100933;28;20180;-61
2022/03/05 00:47:19;;;;;;;12.45;8.32;;;;;;;;;;5098060;28;20184;-61
2022/03/05 00:49:45;;;;;;;11.77;8.82;;;;;;;;;;5096795;28;20191;-61
2022/03/05 00:52:10;;;;;;;14.45;8.57;;;;;;;;;;5098534;28;20729;-61
2022/03/05 00:54:35;;;;;;;9.48;8.07;;;;;;;;;;5100367;28;20259;-61
2022/03/05 00:57:01;;;;;;;12.85;9.00;;;;;;;;;;5096162;28;20175;-61
2022/03/05 00:59:26;;;;;;;11.68;8.45;;;;;;;;;;5093691;28;20175;-61
2022/03/05 01:01:51;;;;;;;13.55;8.90;;;;;;;;;;5093394;28;20173;-61
2022/03/05 01:04:16;;;;;;;12.13;8.75;;;;;;;;;;5101562;28;20172;-61
2022/03/05 01:06:42;;;;;;;12.02;9.77;;;;;;;;;;5099635;28;20266;-61
2022/03/05 01:09:07;;;;;;;11.77;9.80;;;;;;;;;;5102667;28;20785;-61
2022/03/05 01:11:33;;;;;;;13.02;10.00;;;;;;;;;;5081299;28;20249;-61
2022/03/05 01:13:58;;;;;;;16.48;11.93;;;;;;;;;;5078936;28;20172;-61
2022/03/05 01:16:23;;;;;;;13.90;10.90;;;;;;;;;;5099962;28;20164;-61
2022/03/05 01:18:48;;;;;;;19.33;12.07;;;;;;;;;;5096223;28;20208;-61
2022/03/05 01:21:14;;;;;;;16.63;11.60;;;;;;;;;;5098592;28;20183;-61
2022/03/05 01:23:39;;;;;;;13.35;11.35;;;;;;;;;;5094581;28;20232;-61
2022/03/05 01:26:05;;;;;;;18.35;12.20;;;;;;;;;;5094757;28;20613;-61
2022/03/05 01:28:30;;;;;;;17.67;12.52;;;;;;;;;;5098189;28;20241;-61
2022/03/05 01:30:55;;;;;;;16.55;11.35;;;;;;;;;;5083385;28;20628;-61
2022/03/05 01:33:21;;;;;;;15.40;11.80;;;;;;;;;;5077094;28;20172;-61
2022/03/05 01:35:46;;;;;;;20.30;13.18;;;;;;;;;;5084052;28;20183;-61
2022/03/05 01:38:12;;;;;;;16.38;11.50;;;;;;;;;;5090692;28;20618;-61
2022/03/05 01:40:39;;;;;;;20.48;13.77;;;;;;;;;;5091162;28;20180;-61
2022/03/05 01:43:04;;;;;;;21.13;12.43;;;;;;;;;;5099567;28;20218;-61
2022/03/05 01:45:30;;;;;;;15.18;11.52;;;;;;;;;;5101685;28;20591;-61
2022/03/05 01:47:55;;;;;;;16.98;12.15;;;;;;;;;;5091414;28;20763;-61
2022/03/05 01:50:21;;;;;;;19.45;11.85;;;;;;;;;;5097964;28;20192;-61
2022/03/05 01:52:46;;;;;;;16.63;12.48;;;;;;;;;;5095946;28;20286;-61
2022/03/05 01:55:12;;;;;;;26.05;13.05;;;;;;;;;;5097819;28;20172;-61
2022/03/05 01:57:37;;;;;;;25.00;14.45;;;;;;;;;;5101840;28;20213;-62
2022/03/05 02:00:05;;;;;;;22.02;14.93;;;;;;;;;;5095853;28;20184;-62
2022/03/05 02:02:31;;;;;;;20.02;12.77;;;;;;;;;;5103330;28;20187;-62
2022/03/05 02:04:57;;;;;;;23.65;14.77;;;;;;;;;;5101419;28;21186;-62
2022/03/05 02:07:22;;;;;;;19.08;13.02;;;;;;;;;;5100633;28;20674;-62
2022/03/05 02:09:47;;;;;;;20.92;13.27;;;;;;;;;;5097717;28;20228;-62
2022/03/05 02:12:13;;;;;;;17.33;10.82;;;;;;;;;;5101748;28;20253;-62
2022/03/05 02:14:38;;;;;;;15.90;11.05;;;;;;;;;;5096193;28;20171;-62
2022/03/05 02:17:04;;;;;;;15.85;10.20;;;;;;;;;;5098507;28;20207;-62
2022/03/05 02:19:29;;;;;;;18.33;10.95;;;;;;;;;;5098453;28;20675;-62
2022/03/05 02:21:54;;;;;;;14.20;9.90;;;;;;;;;;5098366;28;20556;-62
2022/03/05 02:24:31;;;;;;;17.23;8.85;;;;;;;;;;5109539;28;20644;-62
2022/03/05 02:27:03;;;;;;;11.07;8.38;;;;;;;;;;5106118;28;20175;-62
2022/03/05 02:29:30;;;;;;;13.35;8.05;;;;;;;;;;5097482;28;20343;-62
2022/03/05 02:31:56;;;;;;;8.95;7.30;;;;;;;;;;5103903;28;20191;-62
2022/03/05 02:34:21;;;;;;;10.10;7.18;;;;;;;;;;5101073;28;20186;-62
2022/03/05 02:36:47;;;;;;;7.93;6.95;;;;;;;;;;5101081;28;20218;-62
2022/03/05 02:39:12;;;;;;;8.40;7.22;;;;;;;;;;5099122;28;20172;-62
2022/03/05 02:41:38;;;;;;;8.50;7.00;;;;;;;;;;5104521;28;20262;-62
2022/03/05 02:44:03;;;;;;;8.02;6.88;;;;;;;;;;5108912;28;20187;-62
2022/03/05 02:46:29;;;;;;;10.43;6.82;;;;;;;;;;5108765;28;20569;-62
2022/03/05 02:48:55;;;;;;;9.38;7.40;;;;;;;;;;5109414;28;20648;-62
2022/03/05 02:51:20;;;;;;;8.07;7.22;;;;;;;;;;5104243;28;20202;-62
2022/03/05 02:53:46;;;;;;;15.80;9.82;;;;;;;;;;5107557;28;20176;-62
2022/03/05 02:56:11;;;;;;;24.70;13.10;;;;;;;;;;5100014;28;20178;-62
2022/03/05 02:58:36;;;;;;;19.17;11.82;;;;;;;;;;5101315;28;20178;-61
2022/03/05 03:01:02;;;;;;;12.13;9.88;;;;;;;;;;5108247;28;20619;-62
2022/03/05 03:03:27;;;;;;;11.27;8.00;;;;;;;;;;5103525;28;20188;-62
2022/03/05 03:05:52;;;;;;;8.60;7.20;;;;;;;;;;5109930;28;20616;-62
2022/03/05 03:08:18;;;;;;;12.02;8.27;;;;;;;;;;5091745;28;20177;-62
2022/03/05 03:10:43;;;;;;;10.98;9.02;;;;;;;;;;5101948;28;20226;-62
2022/03/05 03:13:08;;;;;;;12.35;8.77;;;;;;;;;;5101891;28;20175;-62
2022/03/05 03:15:34;;;;;;;11.13;7.95;;;;;;;;;;5083798;28;20397;-62
2022/03/05 03:17:59;;;;;;;8.98;7.28;;;;;;;;;;5079706;28;20168;-62
2022/03/05 03:20:25;;;;;;;8.57;7.55;;;;;;;;;;5101957;28;21110;-62
2022/03/05 03:22:51;;;;;;;11.10;8.07;;;;;;;;;;5091235;28;20211;-61
2022/03/05 03:25:16;;;;;;;9.45;6.75;;;;;;;;;;5103774;28;20228;-62
2022/03/05 03:27:42;;;;;;;10.25;7.38;;;;;;;;;;5098410;28;20254;-62
2022/03/05 03:30:08;;;;;;;9.00;6.88;;;;;;;;;;5101919;28;20295;-62
2022/03/05 03:32:34;;;;;;;13.02;7.22;;;;;;;;;;5096043;28;20171;-62
2022/03/05 03:34:59;;;;;;;8.07;7.25;;;;;;;;;;5110105;28;20187;-62
2022/03/05 03:37:28;;;;;;;6.90;6.18;;;;;;;;;;5081274;28;20908;-62
2022/03/05 03:39:54;;;;;;;9.60;7.20;;;;;;;;;;5099711;28;20211;-62
2022/03/05 03:42:19;;;;;;;8.25;7.30;;;;;;;;;;5101223;28;20195;-62
2022/03/05 03:44:45;;;;;;;10.18;7.38;;;;;;;;;;5092869;28;20176;-62
2022/03/05 03:47:10;;;;;;;7.57;6.72;;;;;;;;;;5102173;28;20727;-62
2022/03/05 03:49:35;;;;;;;7.95;6.78;;;;;;;;;;5103158;28;20250;-62
2022/03/05 03:52:01;;;;;;;7.90;7.10;;;;;;;;;;5099738;28;20187;-62
2022/03/05 03:54:26;;;;;;;8.10;7.30;;;;;;;;;;5096738;28;20652;-62
2022/03/05 03:56:52;;;;;;;8.15;7.25;;;;;;;;;;5091448;28;20184;-62
2022/03/05 03:59:17;;;;;;;9.23;6.53;;;;;;;;;;5097911;28;20195;-62
2022/03/05 04:01:43;;;;;;;8.63;6.57;;;;;;;;;;5100373;28;20842;-62
2022/03/05 04:04:08;;;;;;;9.70;6.60;;;;;;;;;;5098711;28;20204;-62
2022/03/05 04:09:17;;;;;;;9.13;6.63;;;;;;;;;;5097469;28;20194;-62
2022/03/05 04:11:42;;;;;;;9.05;7.63;;;;;;;;;;5097834;28;20219;-62
2022/03/05 04:14:08;;;;;;;8.63;7.05;;;;;;;;;;5096183;28;20173;-62
2022/03/05 04:16:33;;;;;;;8.85;7.20;;;;;;;;;;5098369;28;20229;-62
2022/03/05 04:18:59;;;;;;;8.80;6.85;;;;;;;;;;5082463;28;20267;-62
2022/03/05 04:21:24;;;;;;;9.85;7.40;;;;;;;;;;5078694;28;20595;-62
2022/03/05 04:23:49;;;;;;;9.05;7.10;;;;;;;;;;5082036;28;20180;-62
2022/03/05 04:26:14;;;;;;;9.77;7.97;;;;;;;;;;5100179;28;20248;-62
2022/03/05 04:28:40;;;;;;;7.30;6.57;;;;;;;;;;5099123;28;20612;-62
2022/03/05 04:31:05;;;;;;;9.20;7.43;;;;;;;;;;5093754;28;20365;-62
2022/03/05 04:33:30;;;;;;;9.10;7.07;;;;;;;;;;5094195;28;20200;-62
2022/03/05 04:35:56;;;;;;;10.10;7.80;;;;;;;;;;5103557;28;20185;-62
2022/03/05 04:38:21;;;;;;;10.35;7.22;;;;;;;;;;5098846;28;20190;-62
2022/03/05 04:40:46;;;;;;;8.77;7.75;;;;;;;;;;5097482;28;20908;-62
2022/03/05 04:43:11;;;;;;;10.52;7.20;;;;;;;;;;5098318;28;20184;-62
2022/03/05 04:45:37;;;;;;;10.73;7.93;;;;;;;;;;5098578;28;20616;-62
2022/03/05 04:48:02;;;;;;;10.65;8.70;;;;;;;;;;5097066;28;20215;-62
2022/03/05 04:50:28;;;;;;;11.02;7.53;;;;;;;;;;5105633;28;20199;-62
2022/03/05 04:52:53;;;;;;;9.73;7.50;;;;;;;;;;5096512;28;20229;-61
2022/03/05 04:55:18;;;;;;;11.45;7.57;;;;;;;;;;5103568;28;20172;-62
2022/03/05 04:57:43;;;;;;;11.52;7.95;;;;;;;;;;5100922;28;20183;-62
2022/03/05 05:00:09;;;;;;;9.80;7.38;;;;;;;;;;5097719;28;20236;-62
2022/03/05 05:02:34;;;;;;;8.05;7.20;;;;;;;;;;5096921;28;20644;-62
2022/03/05 05:05:00;;;;;;;11.98;7.40;;;;;;;;;;5099478;27;20174;-61
2022/03/05 05:07:25;;;;;;;10.25;8.07;;;;;;;;;;5101345;28;20208;-62
2022/03/05 05:09:51;;;;;;;8.70;7.57;;;;;;;;;;5100925;28;20231;-62
2022/03/05 05:12:16;;;;;;;9.98;7.70;;;;;;;;;;5101339;28;20183;-62
2022/03/05 05:14:41;;;;;;;11.20;8.05;;;;;;;;;;5095678;28;20171;-62
2022/03/05 05:17:07;;;;;;;9.32;8.32;;;;;;;;;;5107149;28;20171;-62
2022/03/05 05:19:32;;;;;;;10.95;8.27;;;;;;;;;;5094876;28;20172;-62
2022/03/05 05:21:59;;;;;;;12.55;9.43;;;;;;;;;;5094754;28;20176;-62
2022/03/05 05:24:25;;;;;;;11.23;9.00;;;;;;;;;;5096071;28;20180;-62
2022/03/05 05:26:51;;;;;;;11.75;8.65;;;;;;;;;;5100318;28;20704;-62
2022/03/05 05:29:17;;;;;;;13.02;9.57;;;;;;;;;;5098556;28;20257;-62
2022/03/05 05:31:42;;;;;;;13.63;10.20;;;;;;;;;;5095770;28;20196;-62
2022/03/05 05:34:07;;;;;;;10.43;8.10;;;;;;;;;;5103344;28;20203;-62
2022/03/05 05:36:32;;;;;;;11.50;8.52;;;;;;;;;;5094970;28;20183;-62
2022/03/05 05:38:58;;;;;;;15.82;11.90;;;;;;;;;;5092598;28;20541;-63
2022/03/05 05:41:23;;;;;;;22.00;16.52;;;;;;;;;;5104902;28;20214;-62
2022/03/05 05:43:48;;;;;;;27.63;18.30;;;;;;;;;;5097265;28;20215;-62
2022/03/05 05:46:14;;;;;;;31.23;20.77;;;;;;;;;;5097378;28;20818;-62
2022/03/05 05:48:39;;;;;;;33.80;23.35;;;;;;;;;;5102661;28;20693;-62
2022/03/05 05:51:05;;;;;;;33.85;22.48;;;;;;;;;;5095796;28;20673;-62
2022/03/05 05:53:30;;;;;;;35.65;22.65;;;;;;;;;;5104926;28;21003;-61
2022/03/05 05:55:56;;;;;;;46.70;27.58;;;;;;;;;;5097540;28;20176;-61
2022/03/05 05:58:21;;;;;;;50.72;27.50;;;;;;;;;;5097885;28;20212;-61
2022/03/05 06:00:47;;;;;;;45.47;27.73;;;;;;;;;;5094378;28;20240;-62
2022/03/05 06:03:12;;;;;;;47.15;26.45;;;;;;;;;;5092345;28;20614;-61
2022/03/05 06:05:37;;;;;;;40.60;25.25;;;;;;;;;;5074727;28;20657;-61
2022/03/05 06:08:03;;;;;;;53.00;24.50;;;;;;;;;;5077915;28;20208;-61
2022/03/05 06:10:28;;;;;;;43.30;22.75;;;;;;;;;;5085253;28;20286;-61
2022/03/05 06:12:54;;;;;;;38.30;23.15;;;;;;;;;;5090601;28;20596;-61
2022/03/05 06:15:19;;;;;;;41.90;26.27;;;;;;;;;;5095100;28;20237;-61
2022/03/05 06:17:45;;;;;;;49.65;28.17;;;;;;;;;;5094860;28;20172;-62
2022/03/05 06:20:11;;;;;;;50.28;28.92;;;;;;;;;;5099737;28;20256;-61
2022/03/05 06:22:36;;;;;;;57.38;29.33;;;;;;;;;;5087772;28;20186;-62
2022/03/05 06:25:02;;;;;;;51.15;28.30;;;;;;;;;;5086067;28;20188;-63
2022/03/05 06:27:28;;;;;;;48.78;28.13;;;;;;;;;;5076626;28;20263;-62
2022/03/05 06:29:53;;;;;;;58.55;30.02;;;;;;;;;;5079036;28;20207;-61
2022/03/05 06:32:18;;;;;;;54.13;30.45;;;;;;;;;;5086812;28;20207;-63
2022/03/05 06:34:43;;;;;;;38.95;25.35;;;;;;;;;;5090154;28;20265;-62
2022/03/05 06:37:09;;;;;;;33.63;22.33;;;;;;;;;;5096236;28;20192;-62
2022/03/05 06:39:34;;;;;;;35.47;23.38;;;;;;;;;;5096307;28;20209;-62
2022/03/05 06:41:59;;;;;;;34.47;23.75;;;;;;;;;;5103124;28;20218;-62
2022/03/05 06:44:25;;;;;;;49.78;31.60;;;;;;;;;;5091363;28;20572;-63
2022/03/05 06:46:50;;;;;;;58.35;34.30;;;;;;;;;;5077826;28;20191;-63
2022/03/05 06:49:16;;;;;;;40.38;25.42;;;;;;;;;;5076452;28;20286;-61
2022/03/05 06:51:41;;;;;;;56.33;31.05;;;;;;;;;;5082705;28;20661;-61
2022/03/05 06:54:06;;;;;;;66.68;36.25;;;;;;;;;;5093928;28;20270;-61
2022/03/05 06:56:31;;;;;;;71.22;38.80;;;;;;;;;;5093497;28;20630;-61
2022/03/05 06:58:57;;;;;;;77.68;42.05;;;;;;;;;;5098952;28;20213;-61
2022/03/05 07:01:22;;;;;;;58.53;35.25;;;;;;;;;;5094118;28;20679;-61
2022/03/05 07:03:47;;;;;;;45.17;28.85;;;;;;;;;;5099068;28;20640;-61
2022/03/05 07:06:13;;;;;;;64.85;37.20;;;;;;;;;;5101738;28;20176;-61
2022/03/05 07:08:38;;;;;;;61.63;36.65;;;;;;;;;;5099214;28;20187;-60
2022/03/05 07:11:04;;;;;;;66.43;41.97;;;;;;;;;;5100767;28;20226;-61
2022/03/05 07:13:29;;;;;;;54.33;35.08;;;;;;;;;;5106089;27;20660;-61
2022/03/05 07:15:55;;;;;;;50.53;30.95;;;;;;;;;;5099543;28;20237;-61
2022/03/05 07:18:20;;;;;;;49.28;33.00;;;;;;;;;;5099250;27;20183;-61
2022/03/05 07:20:45;;;;;;;53.83;34.03;;;;;;;;;;5094545;28;20176;-61
2022/03/05 07:23:11;;;;;;;54.42;33.53;;;;;;;;;;5096020;28;20184;-61
2022/03/05 07:25:39;;;;;;;46.40;31.38;;;;;;;;;;5090618;28;20250;-62
2022/03/05 07:28:05;;;;;;;49.40;31.17;;;;;;;;;;5090073;28;20180;-62
2022/03/05 07:30:30;;;;;;;50.53;31.15;;;;;;;;;;5079240;28;20231;-61
2022/03/05 07:32:56;;;;;;;45.97;29.73;;;;;;;;;;5081536;28;20279;-62
2022/03/05 07:35:21;;;;;;;43.25;29.58;;;;;;;;;;5093279;28;20634;-62
2022/03/05 07:37:46;;;;;;;45.90;29.92;;;;;;;;;;5098448;28;20206;-62
2022/03/05 07:40:12;;;;;;;42.95;29.40;;;;;;;;;;5094692;28;20172;-62
2022/03/05 07:42:37;;;;;;;45.05;30.98;;;;;;;;;;5096047;28;20179;-62
2022/03/05 07:45:02;;;;;;;52.08;33.08;;;;;;;;;;5097120;28;20569;-62
2022/03/05 07:47:28;;;;;;;50.20;32.35;;;;;;;;;;5095116;28;20240;-62
2022/03/05 07:49:53;;;;;;;47.00;30.90;;;;;;;;;;5096315;28;20196;-61
2022/03/05 07:52:18;;;;;;;46.58;27.98;;;;;;;;;;5099127;28;20699;-62
2022/03/05 07:54:44;;;;;;;48.03;30.05;;;;;;;;;;5101548;28;20180;-62
2022/03/05 07:57:09;;;;;;;60.58;37.15;;;;;;;;;;5100598;28;20225;-62
2022/03/05 07:59:34;;;;;;;42.58;29.90;;;;;;;;;;5105878;28;20262;-62
2022/03/05 08:02:00;;;;;;;43.58;29.50;;;;;;;;;;5098510;28;20194;-62
2022/03/05 08:04:25;;;;;;;43.08;29.05;;;;;;;;;;5094169;28;20191;-62
2022/03/05 08:06:50;;;;;;;51.55;32.63;;;;;;;;;;5096092;28;20587;-62
2022/03/05 08:09:16;;;;;;;54.90;33.33;;;;;;;;;;5106983;28;20186;-62
2022/03/05 08:11:41;;;;;;;58.72;36.08;;;;;;;;;;5097655;28;20211;-62
2022/03/05 08:14:06;;;;;;;50.97;33.15;;;;;;;;;;5099658;28;20267;-62
2022/03/05 08:16:32;;;;;;;45.55;30.23;;;;;;;;;;5103708;28;20187;-63
2022/03/05 08:18:58;;;;;;;55.95;33.58;;;;;;;;;;5099147;28;20183;-62
2022/03/05 08:21:26;;;;;;;51.75;34.92;;;;;;;;;;5103205;28;20191;-61
2022/03/05 08:23:52;;;;;;;51.90;34.60;;;;;;;;;;5099109;28;20617;-62
2022/03/05 08:26:17;;;;;;;52.00;33.92;;;;;;;;;;5106937;28;20296;-61
2022/03/05 08:28:43;;;;;;;53.67;37.65;;;;;;;;;;5108570;28;20180;-62
2022/03/05 08:31:08;;;;;;;49.10;34.28;;;;;;;;;;5104165;28;20207;-62
2022/03/05 08:33:33;;;;;;;51.10;33.47;;;;;;;;;;5098120;28;20770;-62
2022/03/05 08:35:58;;;;;;;47.97;32.60;;;;;;;;;;5099744;28;20232;-61
2022/03/05 08:38:24;;;;;;;51.55;34.58;;;;;;;;;;5096318;28;20668;-62
2022/03/05 08:40:50;;;;;;;45.70;31.75;;;;;;;;;;5089535;28;20176;-62
2022/03/05 08:43:15;;;;;;;47.85;31.73;;;;;;;;;;5104657;28;20270;-61
2022/03/05 08:45:40;;;;;;;52.97;35.38;;;;;;;;;;5101873;28;20180;-62
2022/03/05 08:48:06;;;;;;;61.35;38.15;;;;;;;;;;5097839;28;20179;-62
2022/03/05 08:50:32;;;;;;;69.68;43.08;;;;;;;;;;5092024;27;20294;-62
2022/03/05 08:52:57;;;;;;;52.13;36.00;;;;;;;;;;5098395;28;20179;-62
2022/03/05 08:55:22;;;;;;;42.88;29.00;;;;;;;;;;5098451;28;20175;-62
2022/03/05 08:57:48;;;;;;;47.90;32.95;;;;;;;;;;5100607;28;20176;-62
2022/03/05 09:00:14;;;;;;;44.17;31.27;;;;;;;;;;5098315;28;20648;-62
2022/03/05 09:02:39;;;;;;;52.17;32.88;;;;;;;;;;5103628;28;20176;-61
2022/03/05 09:05:05;;;;;;;53.58;35.00;;;;;;;;;;5091124;28;20560;-62
2022/03/05 09:07:30;;;;;;;53.20;36.03;;;;;;;;;;5107678;28;20568;-62
2022/03/05 09:09:55;;;;;;;66.63;40.45;;;;;;;;;;5101186;28;20186;-62
2022/03/05 09:12:21;;;;;;;55.90;35.47;;;;;;;;;;5106791;28;20672;-62
2022/03/05 09:14:48;;;;;;;44.22;30.17;;;;;;;;;;5096625;28;20863;-62
2022/03/05 09:17:13;;;;;;;43.60;29.88;;;;;;;;;;5096920;28;20952;-62
2022/03/05 09:19:39;;;;;;;41.33;30.25;;;;;;;;;;5099786;28;20187;-62
2022/03/05 09:22:07;;;;;;;46.20;30.13;;;;;;;;;;5097847;28;20235;-61
2022/03/05 09:24:32;;;;;;;42.35;28.58;;;;;;;;;;5093241;28;20184;-62
2022/03/05 09:26:58;;;;;;;48.90;33.13;;;;;;;;;;5098209;28;20180;-61
2022/03/05 09:29:24;;;;;;;42.00;30.00;;;;;;;;;;5098658;28;20207;-62
2022/03/05 09:31:49;;;;;;;50.70;34.53;;;;;;;;;;5099780;28;20242;-62
2022/03/05 09:34:14;;;;;;;47.38;32.63;;;;;;;;;;5089565;28;20181;-62
2022/03/05 09:36:39;;;;;;;48.58;32.78;;;;;;;;;;5075978;28;20223;-62
2022/03/05 09:39:05;;;;;;;50.78;33.55;;;;;;;;;;5078359;28;20210;-62
2022/03/05 09:41:30;;;;;;;51.28;33.53;;;;;;;;;;5087717;28;20699;-61
2022/03/05 09:43:55;;;;;;;51.60;33.33;;;;;;;;;;5093340;28;20222;-61
2022/03/05 09:46:26;;;;;;;52.47;34.50;;;;;;;;;;5102982;28;20176;-61
2022/03/05 09:48:54;;;;;;;56.13;36.15;;;;;;;;;;5099664;28;20281;-61
2022/03/05 09:51:21;;;;;;;64.50;42.65;;;;;;;;;;5104481;28;20214;-61
2022/03/05 09:53:46;;;;;;;56.40;38.15;;;;;;;;;;5092968;28;20785;-61
2022/03/05 09:56:11;;;;;;;56.38;36.72;;;;;;;;;;5080240;28;20259;-61
2022/03/05 09:58:37;;;;;;;57.63;37.70;;;;;;;;;;5076875;28;20168;-61
2022/03/05 10:01:02;;;;;;;65.10;40.75;;;;;;;;;;5083997;28;20669;-61
2022/03/05 10:03:28;;;;;;;55.97;37.80;;;;;;;;;;5096833;28;20188;-60
2022/03/05 10:06:12;;;;;;;51.17;35.17;;;;;;;;;;5095021;28;20253;-61
2022/03/05 10:08:38;;;;;;;46.15;31.75;;;;;;;;;;5097487;28;20176;-61
2022/03/05 10:11:06;;;;;;;46.83;32.45;;;;;;;;;;5094027;28;20223;-61
2022/03/05 10:13:32;;;;;;;49.55;32.65;;;;;;;;;;5100953;28;20179;-61
2022/03/05 10:16:03;;;;;;;55.20;36.95;;;;;;;;;;5091174;28;20562;-61
2022/03/05 10:18:32;;;;;;;50.42;35.10;;;;;;;;;;5095867;28;20317;-61
2022/03/05 10:20:59;;;;;;;50.55;32.55;;;;;;;;;;5097706;28;20175;-61
2022/03/05 10:23:24;;;;;;;42.65;28.08;;;;;;;;;;5098410;28;20206;-61
2022/03/05 10:25:54;;;;;;;33.30;24.35;;;;;;;;;;5099455;28;20184;-61
2022/03/05 10:28:21;;;;;;;38.95;28.35;;;;;;;;;;5104242;28;20179;-61
2022/03/05 10:30:48;;;;;;;65.68;42.45;;;;;;;;;;5102762;28;20210;-61
2022/03/05 10:33:26;;;;;;;57.15;36.88;;;;;;;;;;5096627;28;20254;-61
2022/03/05 10:35:51;;;;;;;39.38;27.10;;;;;;;;;;5096868;28;20179;-61
2022/03/05 10:38:17;;;;;;;34.35;22.77;;;;;;;;;;5097761;28;20200;-61
2022/03/05 10:40:42;;;;;;;42.40;28.23;;;;;;;;;;5097846;28;20605;-61
2022/03/05 10:43:08;;;;;;;116.10;54.17;;;;;;;;;;5104844;28;20201;-61
2022/03/05 10:45:52;;;;;;;50.30;31.25;;;;;;;;;;5104332;28;20190;-61
2022/03/05 10:48:30;;;;;;;40.25;27.83;;;;;;;;;;5095234;28;20274;-61
2022/03/05 10:51:03;;;;;;;37.88;26.83;;;;;;;;;;5094946;28;20203;-61
2022/03/05 10:53:36;;;;;;;39.83;28.08;;;;;;;;;;5101967;28;20286;-61
2022/03/05 10:56:19;;;;;;;39.25;26.58;;;;;;;;;;5098144;28;20179;-61
2022/03/05 10:58:55;;;;;;;31.00;23.33;;;;;;;;;;5087315;28;20177;-61
2022/03/05 11:01:20;;;;;;;31.02;22.98;;;;;;;;;;5098856;28;20175;-61
2022/03/05 11:03:47;;;;;;;29.80;21.60;;;;;;;;;;5102299;28;20691;-61
2022/03/05 11:06:13;;;;;;;35.40;25.05;;;;;;;;;;5095304;28;20562;-61
2022/03/05 11:08:38;;;;;;;34.97;25.27;;;;;;;;;;5108834;28;20171;-61
2022/03/05 11:11:04;;;;;;;32.33;23.23;;;;;;;;;;5101897;28;20208;-61
2022/03/05 11:13:29;;;;;;;32.75;22.20;;;;;;;;;;5104815;28;20252;-61
2022/03/05 11:15:54;;;;;;;35.60;24.35;;;;;;;;;;5108335;28;20308;-61
2022/03/05 11:18:20;;;;;;;35.17;23.88;;;;;;;;;;5105695;28;20176;-61
2022/03/05 11:20:47;;;;;;;31.48;24.35;;;;;;;;;;5080422;28;20183;-61
2022/03/05 11:23:13;;;;;;;41.85;27.70;;;;;;;;;;5078446;28;20180;-61
2022/03/05 11:25:40;;;;;;;47.40;29.00;;;;;;;;;;5087533;28;20179;-60
2022/03/05 11:28:07;;;;;;;38.67;28.15;;;;;;;;;;5102105;28;20257;-61
2022/03/05 11:30:40;;;;;;;48.60;32.50;;;;;;;;;;5102165;28;20695;-61
2022/03/05 11:33:09;;;;;;;45.13;30.65;;;;;;;;;;5105992;28;20179;-61
2022/03/05 11:35:34;;;;;;;48.03;32.75;;;;;;;;;;5099178;27;20302;-61
2022/03/05 11:37:59;;;;;;;41.92;29.77;;;;;;;;;;5091353;28;20295;-61
2022/03/05 11:40:31;;;;;;;38.90;27.05;;;;;;;;;;5096638;28;20176;-61
2022/03/05 11:43:17;;;;;;;35.35;24.85;;;;;;;;;;5098280;28;20274;-61
2022/03/05 11:45:49;;;;;;;33.15;24.00;;;;;;;;;;5100594;28;20205;-61
2022/03/05 11:48:22;;;;;;;31.92;23.58;;;;;;;;;;5108596;28;20191;-61
2022/03/05 11:50:51;;;;;;;30.00;23.20;;;;;;;;;;5108699;28;20215;-61
2022/03/05 11:53:16;;;;;;;27.30;19.48;;;;;;;;;;5100242;28;20657;-61
2022/03/05 11:55:42;;;;;;;58.08;36.85;;;;;;;;;;5105145;28;20202;-61
2022/03/05 11:58:09;;;;;;;54.80;36.30;;;;;;;;;;5107562;28;20168;-60
2022/03/05 12:00:35;;;;;;;17.15;12.90;;;;;;;;;;5100019;28;20204;-61
2022/03/05 12:03:02;;;;;;;17.25;12.98;;;;;;;;;;5098569;28;20909;-61
2022/03/05 12:05:36;;;;;;;17.55;14.32;;;;;;;;;;5099612;28;20186;-61
2022/03/05 12:08:02;;;;;;;48.45;33.55;;;;;;;;;;5099259;28;20582;-61
2022/03/05 12:10:27;;;;;;;26.65;20.33;;;;;;;;;;5099045;28;20224;-61
2022/03/05 12:13:03;;;;;;;33.13;20.63;;;;;;;;;;5091270;28;20663;-61
2022/03/05 12:15:34;;;;;;;37.38;25.05;;;;;;;;;;5091882;28;20184;-61
2022/03/05 12:18:00;;;;;;;23.02;18.40;;;;;;;;;;5101856;28;20263;-61
2022/03/05 12:20:29;;;;;;;24.75;19.23;;;;;;;;;;5103638;28;20258;-61
2022/03/05 12:22:55;;;;;;;16.73;12.82;;;;;;;;;;5094279;28;20187;-61
2022/03/05 12:25:21;;;;;;;12.75;11.45;;;;;;;;;;5098071;28;20511;-61
2022/03/05 12:27:47;;;;;;;16.08;12.95;;;;;;;;;;5098979;28;20962;-61
2022/03/05 12:30:13;;;;;;;18.02;13.77;;;;;;;;;;5094956;28;20211;-61
2022/03/05 12:32:41;;;;;;;21.90;17.77;;;;;;;;;;5102798;28;21012;-61
2022/03/05 12:35:07;;;;;;;31.48;25.13;;;;;;;;;;5103743;28;20175;-61
2022/03/05 12:37:33;;;;;;;17.88;14.38;;;;;;;;;;5102673;28;20285;-61
2022/03/05 12:39:59;;;;;;;15.88;13.95;;;;;;;;;;5095812;28;20262;-61
2022/03/05 12:42:26;;;;;;;17.00;13.68;;;;;;;;;;5104379;28;21077;-61
2022/03/05 12:44:54;;;;;;;31.10;24.23;;;;;;;;;;5099447;28;20176;-61
2022/03/05 12:47:20;;;;;;;31.70;26.63;;;;;;;;;;5098641;28;20738;-61
2022/03/05 12:49:45;;;;;;;18.08;15.25;;;;;;;;;;5101582;28;20275;-61
2022/03/05 12:52:16;;;;;;;35.83;25.85;;;;;;;;;;5106856;28;20191;-61
2022/03/05 12:54:45;;;;;;;75.03;44.45;;;;;;;;;;5101131;28;20160;-61
2022/03/05 12:57:10;;;;;;;25.73;18.95;;;;;;;;;;5097532;28;20230;-61
2022/03/05 12:59:39;;;;;;;32.83;23.38;;;;;;;;;;5097474;28;20648;-61
2022/03/05 13:02:05;;;;;;;16.10;13.35;;;;;;;;;;5103679;28;20183;-61
2022/03/05 13:04:30;;;;;;;20.00;16.30;;;;;;;;;;5096802;28;20191;-61
2022/03/05 13:07:00;;;;;;;22.70;16.13;;;;;;;;;;5097204;28;20180;-61
2022/03/05 13:09:28;;;;;;;23.98;18.52;;;;;;;;;;5098716;28;20194;-61
2022/03/05 13:11:53;;;;;;;23.13;17.48;;;;;;;;;;5100792;28;20210;-61
2022/03/05 13:14:20;;;;;;;24.73;18.65;;;;;;;;;;5103209;28;20172;-61
2022/03/05 13:16:48;;;;;;;15.00;13.40;;;;;;;;;;5098882;28;20255;-61
2022/03/05 13:19:14;;;;;;;19.00;15.20;;;;;;;;;;5095686;28;20221;-61
2022/03/05 13:21:46;;;;;;;26.70;17.30;;;;;;;;;;5099957;28;20169;-60
2022/03/05 13:24:16;;;;;;;20.25;16.05;;;;;;;;;;5097196;28;20175;-60
2022/03/05 13:26:44;;;;;;;47.70;30.80;;;;;;;;;;5096375;28;20179;-61
2022/03/05 13:29:09;;;;;;;25.15;19.92;;;;;;;;;;5097313;28;20192;-60
2022/03/05 13:31:35;;;;;;;30.23;21.48;;;;;;;;;;5101676;28;20198;-61
2022/03/05 13:34:00;;;;;;;26.50;19.30;;;;;;;;;;5094396;28;20215;-60
2022/03/05 13:36:36;;;;;;;27.58;22.23;;;;;;;;;;5102888;28;20183;-61
2022/03/05 13:39:12;;;;;;;28.40;19.88;;;;;;;;;;5089045;28;20263;-61
2022/03/05 13:41:42;;;;;;;20.40;15.63;;;;;;;;;;5098279;28;20194;-61
2022/03/05 13:44:20;;;;;;;19.38;14.25;;;;;;;;;;5100014;28;20211;-60
2022/03/05 13:46:46;;;;;;;21.75;15.27;;;;;;;;;;5093961;28;20244;-60
2022/03/05 13:49:14;;;;;;;20.88;15.73;;;;;;;;;;5096461;28;20853;-61
2022/03/05 13:51:44;;;;;;;24.88;17.30;;;;;;;;;;5098239;28;20234;-61
2022/03/05 13:54:09;;;;;;;36.70;23.42;;;;;;;;;;5097703;28;20640;-61
2022/03/05 13:56:45;;;;;;;51.10;29.55;;;;;;;;;;5094043;28;20190;-61
2022/03/05 13:59:11;;;;;;;43.28;27.13;;;;;;;;;;5102395;28;21049;-61
2022/03/05 14:01:37;;;;;;;48.33;24.02;;;;;;;;;;5086918;28;20176;-61
2022/03/05 14:04:09;;;;;;;30.42;20.10;;;;;;;;;;5094224;28;20634;-62
2022/03/05 14:06:53;;;;;;;44.60;23.65;;;;;;;;;;5098783;28;20186;-61
2022/03/05 14:09:27;;;;;;;15.65;10.88;;;;;;;;;;5096607;28;20739;-61
2022/03/05 14:12:02;;;;;;;69.90;28.58;;;;;;;;;;5097273;28;20199;-61
2022/03/05 14:14:37;;;;;;;21.35;14.40;;;;;;;;;;5098836;28;20220;-62
2022/03/05 14:17:03;;;;;;;34.90;19.90;;;;;;;;;;5098264;28;20203;-61
2022/03/05 14:19:29;;;;;;;29.20;19.50;;;;;;;;;;5088629;28;20222;-62
2022/03/05 14:22:08;;;;;;;22.58;17.02;;;;;;;;;;5093721;28;20195;-62